Time;durP1;ratioP1;P1;durP2;ratioP2;P2;SDS_P1;SDS_P2;PMS_P1;PMS_P2;Temp;Humidity;BMP_temperature;BMP_pressure;BME280_temperature;BME280_humidity;BME280_pressure;Samples;Min_cycle;Max_cycle;Signal;HPM_P1;HPM_P2
2021/12/07 00:01:10;;;;;;;49.50;31.37;;;0.60;90.10;;;;;;4936089;29;20218;-89
2021/12/07 00:03:36;;;;;;;50.80;28.70;;;0.60;90.10;;;;;;4936098;29;20232;-90
2021/12/07 00:06:03;;;;;;;52.43;30.70;;;0.60;90.00;;;;;;4936033;29;20187;-90
2021/12/07 00:08:29;;;;;;;51.77;29.90;;;0.60;90.00;;;;;;4936995;29;20286;-90
2021/12/07 00:10:56;;;;;;;50.50;30.50;;;0.70;90.00;;;;;;4936011;29;20211;-90
2021/12/07 00:13:24;;;;;;;57.80;35.00;;;0.60;90.00;;;;;;4935863;29;20180;-90
2021/12/07 00:15:49;;;;;;;52.97;31.97;;;0.70;90.10;;;;;;4936213;29;20173;-89
2021/12/07 00:18:15;;;;;;;52.43;31.73;;;0.60;90.10;;;;;;4936073;29;20553;-89
2021/12/07 00:20:41;;;;;;;51.30;30.37;;;0.60;90.10;;;;;;4935766;29;20189;-89
2021/12/07 00:23:09;;;;;;;55.83;30.70;;;0.60;90.10;;;;;;4935823;29;20220;-89
2021/12/07 00:25:36;;;;;;;56.80;33.20;;;0.60;90.20;;;;;;4935720;29;20180;-88
2021/12/07 00:28:03;;;;;;;49.70;31.93;;;0.60;90.20;;;;;;4935435;29;20220;-89
2021/12/07 00:30:32;;;;;;;52.67;29.07;;;0.70;90.10;;;;;;4935456;29;20563;-89
2021/12/07 00:33:14;;;;;;;51.03;30.97;;;0.70;90.00;;;;;;4936751;29;20560;-88
2021/12/07 00:35:40;;;;;;;54.97;34.17;;;0.60;90.00;;;;;;4935520;29;20176;-90
2021/12/07 00:38:11;;;;;;;52.27;30.80;;;0.70;90.00;;;;;;4935855;29;20207;-89
2021/12/07 00:40:38;;;;;;;50.87;30.83;;;0.60;90.00;;;;;;4936364;29;20180;-89
2021/12/07 00:43:05;;;;;;;46.87;29.40;;;0.60;90.00;;;;;;4935324;29;20189;-90
2021/12/07 00:45:33;;;;;;;47.10;28.30;;;0.60;90.00;;;;;;4936901;29;20192;-89
2021/12/07 00:47:59;;;;;;;55.97;32.10;;;0.60;89.90;;;;;;4935153;29;20201;-90
2021/12/07 00:50:26;;;;;;;56.27;32.77;;;0.60;90.00;;;;;;4935406;29;20203;-89
2021/12/07 00:52:52;;;;;;;50.00;31.17;;;0.60;90.00;;;;;;4935185;29;20180;-90
2021/12/07 00:55:24;;;;;;;52.37;30.17;;;0.60;90.00;;;;;;4935254;29;20751;-88
2021/12/07 00:57:53;;;;;;;48.57;30.10;;;0.60;90.00;;;;;;4935207;29;20208;-88
2021/12/07 01:00:19;;;;;;;54.20;31.80;;;0.60;89.90;;;;;;4936508;29;20643;-87
2021/12/07 01:02:46;;;;;;;51.00;29.57;;;0.60;90.00;;;;;;4935018;29;20192;-87
2021/12/07 01:05:18;;;;;;;47.67;27.03;;;0.60;90.00;;;;;;4936271;29;20662;-87
2021/12/07 01:26:39;;;;;;;50.03;29.37;;;0.50;90.10;;;;;;4936172;29;20223;-87
2021/12/07 01:29:05;;;;;;;52.90;31.97;;;0.50;90.10;;;;;;4934520;29;20254;-87
2021/12/07 01:31:42;;;;;;;51.40;30.13;;;0.50;90.10;;;;;;4934803;29;20207;-87
2021/12/07 01:34:42;;;;;;;50.63;28.67;;;0.50;90.10;;;;;;4934751;29;20178;-87
2021/12/07 01:45:17;;;;;;;48.53;29.07;;;0.50;90.00;;;;;;4936085;29;20216;-88
2021/12/07 01:59:32;;;;;;;52.53;31.07;;;0.40;90.20;;;;;;4935983;29;20214;-88
2021/12/07 02:00:43;;;;;;;53.33;32.00;;;0.50;90.20;;;;;;4935555;29;20188;-87
2021/12/07 02:03:08;;;;;;;50.77;30.87;;;0.40;90.10;;;;;;4935702;29;20603;-88
2021/12/07 02:05:34;;;;;;;53.27;31.97;;;0.40;90.20;;;;;;4934566;29;20191;-88
2021/12/07 02:08:00;;;;;;;54.00;31.23;;;0.40;90.20;;;;;;4935732;29;20200;-88
2021/12/07 02:10:29;;;;;;;52.20;29.50;;;0.40;90.20;;;;;;4934440;29;20272;-89
2021/12/07 02:13:01;;;;;;;59.83;33.57;;;0.40;90.20;;;;;;4934309;29;20186;-88
2021/12/07 02:15:29;;;;;;;57.10;31.83;;;0.40;90.30;;;;;;4934444;29;20179;-88
2021/12/07 02:17:55;;;;;;;51.10;29.90;;;0.30;90.30;;;;;;4935885;29;20218;-88
2021/12/07 02:20:24;;;;;;;50.43;28.87;;;0.40;90.30;;;;;;4935488;29;20210;-88
2021/12/07 02:22:51;;;;;;;49.50;29.40;;;0.30;90.40;;;;;;4934277;29;20635;-88
2021/12/07 02:25:17;;;;;;;55.90;31.43;;;0.30;90.40;;;;;;4934330;29;20639;-88
2021/12/07 02:27:45;;;;;;;62.63;33.17;;;0.30;90.40;;;;;;4935293;29;20668;-89
2021/12/07 02:30:14;;;;;;;52.70;30.23;;;0.30;90.40;;;;;;4934327;29;20184;-88
2021/12/07 02:32:41;;;;;;;57.33;32.20;;;0.30;90.40;;;;;;4937670;29;20180;-88
2021/12/07 02:35:09;;;;;;;54.93;34.63;;;0.30;90.40;;;;;;4937615;29;20594;-88
2021/12/07 02:37:35;;;;;;;55.17;33.33;;;0.30;90.40;;;;;;4937693;29;20671;-89
2021/12/07 02:40:03;;;;;;;58.83;34.13;;;0.30;90.50;;;;;;4939070;29;20177;-88
2021/12/07 02:42:29;;;;;;;58.53;34.03;;;0.30;90.50;;;;;;4937523;29;20556;-88
2021/12/07 02:44:55;;;;;;;57.97;33.33;;;0.30;90.60;;;;;;4937480;29;20339;-88
2021/12/07 02:47:20;;;;;;;58.13;34.00;;;0.30;90.60;;;;;;4937414;29;20228;-89
2021/12/07 02:49:47;;;;;;;54.93;30.83;;;0.30;90.60;;;;;;4937351;29;20235;-88
2021/12/07 02:52:13;;;;;;;60.07;34.27;;;0.30;90.60;;;;;;4937347;29;20178;-88
2021/12/07 02:54:44;;;;;;;63.23;35.63;;;0.30;90.70;;;;;;4937596;29;20182;-88
2021/12/07 02:57:15;;;;;;;58.33;34.03;;;0.30;90.70;;;;;;4937238;29;20177;-88
2021/12/07 02:59:45;;;;;;;60.47;33.23;;;0.30;90.70;;;;;;4937330;29;20259;-88
2021/12/07 03:02:12;;;;;;;57.57;33.70;;;0.30;90.70;;;;;;4937338;29;20181;-88
2021/12/07 03:04:46;;;;;;;59.53;33.90;;;0.30;90.80;;;;;;4937162;29;20233;-89
2021/12/07 03:07:24;;;;;;;59.13;32.27;;;0.30;90.80;;;;;;4938442;29;20161;-88
2021/12/07 03:25:47;;;;;;;62.50;36.10;;;0.40;90.80;;;;;;4937085;29;20749;-89
2021/12/07 03:26:28;;;;;;;61.87;34.13;;;0.50;90.70;;;;;;4938404;29;20171;-88
2021/12/07 03:28:57;;;;;;;62.97;35.93;;;0.50;90.70;;;;;;4936910;29;20227;-88
2021/12/07 03:31:26;;;;;;;62.50;35.33;;;0.50;90.60;;;;;;4937881;29;20184;-89
2021/12/07 03:33:53;;;;;;;65.03;36.90;;;0.50;90.60;;;;;;4936638;29;20185;-88
2021/12/07 03:36:19;;;;;;;66.93;35.00;;;0.50;90.60;;;;;;4937388;29;20465;-89
2021/12/07 03:38:46;;;;;;;61.47;35.90;;;0.50;90.60;;;;;;4937689;29;20208;-88
2021/12/07 03:41:12;;;;;;;60.47;34.70;;;0.50;90.60;;;;;;4936522;29;20594;-88
2021/12/07 03:43:39;;;;;;;62.57;37.00;;;0.50;90.60;;;;;;4936193;29;20196;-88
2021/12/07 03:46:05;;;;;;;58.40;34.63;;;0.50;90.60;;;;;;4936702;29;20664;-89
2021/12/07 03:48:31;;;;;;;63.70;36.73;;;0.50;90.60;;;;;;4936824;29;20636;-88
2021/12/07 03:50:57;;;;;;;65.03;35.47;;;0.50;90.60;;;;;;4936469;29;20233;-89
2021/12/07 03:53:23;;;;;;;61.87;36.03;;;0.60;90.60;;;;;;4936269;29;20185;-88
2021/12/07 03:55:48;;;;;;;61.70;34.13;;;0.50;90.60;;;;;;4936228;29;20546;-90
2021/12/07 03:58:14;;;;;;;63.80;36.63;;;0.60;90.60;;;;;;4936529;29;20677;-89
2021/12/07 04:00:43;;;;;;;67.87;36.10;;;0.50;90.50;;;;;;4936126;29;20192;-88
2021/12/07 04:03:12;;;;;;;60.93;34.47;;;0.60;90.50;;;;;;4936255;29;20200;-90
2021/12/07 04:05:49;;;;;;;57.70;33.63;;;0.60;90.60;;;;;;4936071;29;20332;-89
2021/12/07 04:08:20;;;;;;;59.33;35.43;;;0.50;90.50;;;;;;4935887;29;20210;-89
2021/12/07 04:10:46;;;;;;;64.43;35.77;;;0.50;90.50;;;;;;4936868;29;20248;-89
2021/12/07 04:13:12;;;;;;;64.33;35.20;;;0.60;90.60;;;;;;4935917;29;20206;-89
2021/12/07 04:15:38;;;;;;;67.77;36.17;;;0.50;90.50;;;;;;4936148;29;20559;-89
2021/12/07 04:18:05;;;;;;;61.87;35.50;;;0.60;90.40;;;;;;4936872;29;20207;-88
2021/12/07 04:20:30;;;;;;;57.97;34.57;;;0.60;90.50;;;;;;4936140;29;20183;-89
2021/12/07 04:22:56;;;;;;;59.90;35.83;;;0.60;90.50;;;;;;4937229;29;20175;-89
2021/12/07 04:25:23;;;;;;;58.70;34.77;;;0.60;90.60;;;;;;4935764;29;20237;-89
2021/12/07 04:27:51;;;;;;;66.20;37.27;;;0.60;90.60;;;;;;4936958;29;20213;-89
2021/12/07 04:30:23;;;;;;;63.93;36.10;;;0.50;90.60;;;;;;4935927;29;20196;-89
2021/12/07 04:32:49;;;;;;;60.47;35.37;;;0.60;90.60;;;;;;4935567;29;20176;-89
2021/12/07 04:35:16;;;;;;;64.87;36.30;;;0.50;90.60;;;;;;4935534;29;20183;-89
2021/12/07 04:37:42;;;;;;;65.47;34.80;;;0.60;90.60;;;;;;4935701;29;20200;-89
2021/12/07 04:40:12;;;;;;;59.80;34.50;;;0.60;90.60;;;;;;4935521;29;20185;-89
2021/12/07 04:42:38;;;;;;;61.80;35.33;;;0.60;90.60;;;;;;4935488;29;20235;-89
2021/12/07 04:45:09;;;;;;;61.20;35.60;;;0.60;90.60;;;;;;4936910;29;20257;-89
2021/12/07 04:47:51;;;;;;;61.87;36.47;;;0.60;90.60;;;;;;4935657;29;20199;-89
2021/12/07 04:58:23;;;;;;;63.90;36.13;;;0.60;90.70;;;;;;4936881;29;20211;-89
2021/12/07 05:00:50;;;;;;;63.67;36.83;;;0.60;90.80;;;;;;4935301;29;20184;-90
2021/12/07 05:03:16;;;;;;;61.90;36.17;;;0.60;90.80;;;;;;4935117;29;20666;-89
2021/12/07 05:05:47;;;;;;;65.67;35.00;;;0.60;90.80;;;;;;4936284;29;20557;-89
2021/12/07 05:08:16;;;;;;;67.80;37.80;;;0.60;90.80;;;;;;4936599;29;20209;-89
2021/12/07 05:13:26;;;;;;;59.90;35.67;;;0.60;90.80;;;;;;4936767;29;20164;-89
2021/12/07 05:23:59;;;;;;;60.03;34.70;;;0.70;90.80;;;;;;4936348;29;20589;-89
2021/12/07 05:40:09;;;;;;;64.33;35.10;;;0.70;90.90;;;;;;4927986;29;20553;-89
2021/12/07 05:42:36;;;;;;;61.57;35.60;;;0.70;90.90;;;;;;4934612;29;20229;-89
2021/12/07 05:45:04;;;;;;;59.73;35.17;;;0.70;91.00;;;;;;4934696;29;20215;-89
2021/12/07 05:47:29;;;;;;;59.63;37.10;;;0.70;90.90;;;;;;4934552;29;20208;-90
2021/12/07 05:49:55;;;;;;;64.30;37.90;;;0.70;90.90;;;;;;4934578;29;20210;-89
2021/12/07 05:52:21;;;;;;;64.47;37.03;;;0.70;90.90;;;;;;4935760;29;20615;-89
2021/12/07 05:54:47;;;;;;;61.40;35.00;;;0.70;90.90;;;;;;4935187;29;20198;-90
2021/12/07 05:57:13;;;;;;;61.67;36.50;;;0.80;90.90;;;;;;4934641;29;20176;-89
2021/12/07 05:59:39;;;;;;;61.33;34.73;;;0.80;90.80;;;;;;4934608;29;20277;-89
2021/12/07 06:02:05;;;;;;;59.93;36.20;;;0.80;90.80;;;;;;4934758;29;20346;-89
2021/12/07 06:04:31;;;;;;;61.53;35.90;;;0.80;90.80;;;;;;4934604;29;20235;-89
2021/12/07 06:06:58;;;;;;;66.17;36.67;;;0.80;90.80;;;;;;4937073;29;20658;-89
2021/12/07 06:09:24;;;;;;;67.73;38.27;;;0.70;90.80;;;;;;4939335;29;20685;-89
2021/12/07 06:11:50;;;;;;;62.73;35.33;;;0.80;90.90;;;;;;4938201;29;20184;-89
2021/12/07 06:14:20;;;;;;;63.07;37.03;;;0.80;90.80;;;;;;4938092;29;20186;-89
2021/12/07 06:16:48;;;;;;;61.50;34.87;;;0.80;90.80;;;;;;4938871;29;20632;-89
2021/12/07 06:19:13;;;;;;;63.80;35.53;;;0.80;90.90;;;;;;4938169;29;20202;-89
2021/12/07 06:21:39;;;;;;;62.30;34.03;;;0.80;90.80;;;;;;4938827;29;20190;-90
2021/12/07 06:24:05;;;;;;;62.03;36.40;;;0.80;90.90;;;;;;4937787;29;20243;-89
2021/12/07 06:26:33;;;;;;;65.77;37.03;;;0.80;90.80;;;;;;4937777;29;20186;-90
2021/12/07 06:28:59;;;;;;;65.50;36.57;;;0.80;90.90;;;;;;4937575;29;20244;-89
2021/12/07 06:31:24;;;;;;;64.10;35.73;;;0.80;91.00;;;;;;4938021;29;20185;-89
2021/12/07 06:33:50;;;;;;;60.87;36.27;;;0.80;90.90;;;;;;4938931;29;20230;-89
2021/12/07 06:36:15;;;;;;;64.73;36.87;;;0.80;90.90;;;;;;4937645;29;20652;-90
2021/12/07 06:38:42;;;;;;;59.93;35.93;;;0.80;90.90;;;;;;4937613;29;20234;-89
2021/12/07 06:41:08;;;;;;;62.43;36.57;;;0.80;90.90;;;;;;4937611;29;20187;-89
2021/12/07 06:43:33;;;;;;;65.23;36.97;;;0.80;90.90;;;;;;4938844;29;20182;-90
2021/12/07 06:45:59;;;;;;;62.40;37.73;;;0.80;90.90;;;;;;4937606;29;20278;-89
2021/12/07 06:48:25;;;;;;;65.87;36.57;;;0.90;90.90;;;;;;4937329;29;20362;-89
2021/12/07 06:50:51;;;;;;;62.30;36.73;;;0.80;90.90;;;;;;4937484;29;20283;-89
2021/12/07 06:53:17;;;;;;;58.60;35.10;;;0.90;90.90;;;;;;4937396;29;20285;-89
2021/12/07 06:55:43;;;;;;;60.03;34.87;;;0.90;91.00;;;;;;4937715;29;20187;-90
2021/12/07 06:58:09;;;;;;;63.57;35.27;;;0.90;90.90;;;;;;4937269;29;20194;-89
2021/12/07 07:00:35;;;;;;;63.37;35.60;;;0.90;90.90;;;;;;4938102;29;20269;-89
2021/12/07 07:03:01;;;;;;;61.03;36.20;;;0.90;90.90;;;;;;4937322;29;20719;-89
2021/12/07 07:05:26;;;;;;;58.97;34.30;;;0.90;90.90;;;;;;4937232;29;20179;-89
2021/12/07 07:07:52;;;;;;;63.40;35.77;;;0.90;90.90;;;;;;4937019;29;20225;-89
2021/12/07 07:10:19;;;;;;;58.47;34.83;;;0.90;91.00;;;;;;4937019;29;20215;-89
2021/12/07 07:12:46;;;;;;;59.53;36.70;;;0.80;91.10;;;;;;4937354;29;20286;-89
2021/12/07 07:15:12;;;;;;;59.27;34.87;;;0.90;91.20;;;;;;4937036;29;20185;-89
2021/12/07 07:17:39;;;;;;;65.87;37.43;;;0.90;91.30;;;;;;4937041;29;20254;-90
2021/12/07 07:20:08;;;;;;;61.53;33.80;;;0.90;91.40;;;;;;4938139;29;20192;-90
2021/12/07 07:22:34;;;;;;;65.07;36.33;;;0.80;91.40;;;;;;4936828;29;20285;-89
2021/12/07 07:24:59;;;;;;;62.27;36.73;;;0.80;91.60;;;;;;4936798;29;20193;-90
2021/12/07 07:27:25;;;;;;;64.47;34.27;;;0.80;91.70;;;;;;4936668;29;20190;-89
2021/12/07 07:29:51;;;;;;;71.37;35.93;;;0.80;91.80;;;;;;4936818;29;20222;-89
2021/12/07 07:32:17;;;;;;;65.90;38.20;;;0.80;91.90;;;;;;4937536;29;20227;-90
2021/12/07 07:34:43;;;;;;;60.50;33.53;;;0.80;92.00;;;;;;4937891;29;20220;-89
2021/12/07 07:37:09;;;;;;;62.50;36.53;;;0.80;92.00;;;;;;4936495;29;20183;-90
2021/12/07 07:39:35;;;;;;;63.30;38.13;;;0.80;92.10;;;;;;4936879;29;20197;-89
2021/12/07 07:42:00;;;;;;;62.97;35.70;;;0.80;92.20;;;;;;4936505;29;20744;-90
2021/12/07 07:44:26;;;;;;;65.67;35.80;;;0.80;92.30;;;;;;4936792;29;20185;-90
2021/12/07 07:46:52;;;;;;;67.73;36.97;;;0.70;92.40;;;;;;4936463;29;20566;-90
2021/12/07 07:49:17;;;;;;;67.20;36.17;;;0.80;92.40;;;;;;4936693;29;20280;-90
2021/12/07 07:51:43;;;;;;;66.17;37.27;;;0.80;92.50;;;;;;4937523;29;20211;-89
2021/12/07 07:54:09;;;;;;;70.97;39.50;;;0.70;92.50;;;;;;4937667;29;20173;-89
2021/12/07 07:56:36;;;;;;;61.60;35.30;;;0.80;92.50;;;;;;4936318;29;20234;-90
2021/12/07 07:59:03;;;;;;;67.20;37.03;;;0.80;92.50;;;;;;4936266;29;20588;-89
2021/12/07 08:01:31;;;;;;;62.30;36.13;;;0.80;92.40;;;;;;4936082;29;20278;-89
2021/12/07 08:03:59;;;;;;;64.77;37.47;;;0.80;92.40;;;;;;4936161;29;20180;-90
2021/12/07 08:06:25;;;;;;;67.70;37.63;;;0.80;92.30;;;;;;4935992;29;20657;-89
2021/12/07 08:08:51;;;;;;;63.23;37.80;;;0.80;92.30;;;;;;4935871;29;20212;-90
2021/12/07 08:11:17;;;;;;;71.53;36.23;;;0.80;92.30;;;;;;4936525;29;20190;-89
2021/12/07 08:13:43;;;;;;;64.90;37.13;;;0.80;92.30;;;;;;4936218;29;20624;-90
2021/12/07 08:16:15;;;;;;;64.47;37.60;;;0.80;92.30;;;;;;4935902;29;20186;-90
2021/12/07 08:18:49;;;;;;;62.30;35.93;;;0.80;92.30;;;;;;4936528;29;20206;-90
2021/12/07 08:21:16;;;;;;;60.53;34.70;;;0.90;92.30;;;;;;4935697;29;20188;-89
2021/12/07 08:23:42;;;;;;;59.33;34.67;;;0.90;92.20;;;;;;4935856;29;20185;-89
2021/12/07 08:26:10;;;;;;;59.67;35.40;;;0.90;92.20;;;;;;4935762;29;20191;-90
2021/12/07 08:28:36;;;;;;;57.53;33.93;;;0.90;92.30;;;;;;4935170;29;20286;-90
2021/12/07 08:31:03;;;;;;;66.03;36.97;;;0.90;92.20;;;;;;4935754;29;20181;-90
2021/12/07 08:33:29;;;;;;;60.03;35.30;;;0.90;92.20;;;;;;4935555;29;20543;-90
2021/12/07 08:35:55;;;;;;;64.30;36.87;;;0.90;92.10;;;;;;4935503;29;20266;-90
2021/12/07 08:38:21;;;;;;;59.27;34.93;;;0.90;92.10;;;;;;4936238;29;20247;-90
2021/12/07 08:40:53;;;;;;;61.00;36.73;;;0.90;92.10;;;;;;4935961;29;20180;-90
2021/12/07 08:43:24;;;;;;;68.17;35.20;;;0.90;92.10;;;;;;4936000;29;20644;-90
2021/12/07 08:45:50;;;;;;;57.73;34.57;;;1.00;92.10;;;;;;4935963;29;20189;-89
2021/12/07 08:48:17;;;;;;;66.03;36.77;;;1.00;92.00;;;;;;4935157;29;20207;-90
2021/12/07 08:50:44;;;;;;;64.93;35.23;;;1.00;92.00;;;;;;4935407;29;20184;-90
2021/12/07 08:53:12;;;;;;;60.07;35.73;;;1.00;91.90;;;;;;4935452;29;20183;-89
2021/12/07 09:01:09;;;;;;;64.57;35.33;;;1.10;91.90;;;;;;4937015;29;20174;-89
2021/12/07 09:03:35;;;;;;;60.90;33.67;;;1.10;91.90;;;;;;4936504;29;20184;-89
2021/12/07 09:06:00;;;;;;;57.67;33.73;;;1.10;91.80;;;;;;4935147;29;20197;-89
2021/12/07 09:08:26;;;;;;;65.53;37.17;;;1.20;91.80;;;;;;4935014;29;20218;-91
2021/12/07 09:10:52;;;;;;;58.87;32.87;;;1.20;91.80;;;;;;4935209;29;20561;-91
2021/12/07 09:13:20;;;;;;;59.73;36.40;;;1.20;91.70;;;;;;4935527;29;20187;-90
2021/12/07 09:15:45;;;;;;;59.17;34.57;;;1.20;91.80;;;;;;4936231;29;20693;-90
2021/12/07 09:18:11;;;;;;;62.53;34.80;;;1.20;91.70;;;;;;4935487;29;20202;-90
2021/12/07 09:20:37;;;;;;;58.00;33.33;;;1.20;91.70;;;;;;4934856;29;20701;-90
2021/12/07 09:23:03;;;;;;;55.90;33.57;;;1.30;91.70;;;;;;4934887;29;20667;-91
2021/12/07 09:25:29;;;;;;;63.80;35.27;;;1.20;91.50;;;;;;4935170;29;20236;-89
2021/12/07 09:27:55;;;;;;;61.50;35.53;;;1.30;91.60;;;;;;4934956;29;20631;-90
2021/12/07 09:30:20;;;;;;;59.60;34.00;;;1.30;91.60;;;;;;4934780;29;20253;-90
2021/12/07 09:32:47;;;;;;;61.37;35.60;;;1.30;91.60;;;;;;4934871;29;20293;-89
2021/12/07 09:35:14;;;;;;;60.67;34.57;;;1.30;91.50;;;;;;4935095;29;20182;-89
2021/12/07 09:37:40;;;;;;;60.53;34.13;;;1.30;91.40;;;;;;4935224;29;20205;-90
2021/12/07 09:40:10;;;;;;;55.60;32.67;;;1.40;91.40;;;;;;4934665;29;20273;-89
2021/12/07 09:42:36;;;;;;;57.23;34.00;;;1.40;91.20;;;;;;4939631;29;20339;-89
2021/12/07 09:45:05;;;;;;;60.07;33.40;;;1.40;91.20;;;;;;4939221;29;20194;-89
2021/12/07 09:47:30;;;;;;;59.60;34.43;;;1.40;91.30;;;;;;4939475;29;20547;-89
2021/12/07 09:49:56;;;;;;;59.20;33.77;;;1.50;91.20;;;;;;4938728;29;20209;-90
2021/12/07 09:52:22;;;;;;;56.13;32.63;;;1.60;91.20;;;;;;4938501;29;20253;-90
2021/12/07 09:54:47;;;;;;;63.77;36.33;;;1.60;91.20;;;;;;4938517;29;20232;-90
2021/12/07 09:57:13;;;;;;;57.73;33.70;;;1.60;91.00;;;;;;4938643;29;20270;-90
2021/12/07 09:59:39;;;;;;;60.07;33.47;;;1.60;90.90;;;;;;4938436;29;20237;-89
2021/12/07 10:02:07;;;;;;;52.17;31.67;;;1.60;90.90;;;;;;4938848;29;20205;-90
2021/12/07 10:04:33;;;;;;;57.97;33.20;;;1.60;90.90;;;;;;4938408;29;20239;-90
2021/12/07 10:07:00;;;;;;;57.80;33.57;;;1.60;90.90;;;;;;4938279;29;20639;-90
2021/12/07 10:09:25;;;;;;;57.90;32.10;;;1.60;90.80;;;;;;4939344;29;20218;-91
2021/12/07 10:11:55;;;;;;;54.37;32.57;;;1.70;90.80;;;;;;4938121;29;20275;-90
2021/12/07 10:14:20;;;;;;;49.67;30.43;;;1.70;90.60;;;;;;4938126;29;20217;-90
2021/12/07 10:16:48;;;;;;;51.23;31.33;;;1.60;90.40;;;;;;4938426;29;20648;-90
2021/12/07 10:19:27;;;;;;;61.70;31.70;;;1.60;90.50;;;;;;4938433;29;20663;-91
2021/12/07 10:22:07;;;;;;;51.30;31.23;;;1.70;90.50;;;;;;4938804;29;20214;-90
2021/12/07 10:24:39;;;;;;;49.33;30.27;;;1.70;90.40;;;;;;4938872;29;20211;-91
2021/12/07 10:27:07;;;;;;;49.00;32.03;;;1.60;90.30;;;;;;4938046;29;20285;-91
2021/12/07 10:29:32;;;;;;;50.03;31.53;;;1.70;90.30;;;;;;4939474;29;20695;-91
2021/12/07 10:32:01;;;;;;;51.10;31.00;;;1.70;90.40;;;;;;4939081;29;20183;-91
2021/12/07 10:34:35;;;;;;;49.17;30.23;;;1.70;90.50;;;;;;4940562;29;20711;-92
2021/12/07 10:37:27;;;;;;;51.43;32.47;;;1.70;90.40;;;;;;4938827;29;20183;-92
2021/12/07 10:39:57;;;;;;;56.57;32.00;;;1.70;90.50;;;;;;4937790;29;20771;-92
2021/12/07 10:42:29;;;;;;;51.43;31.67;;;1.80;90.50;;;;;;4938415;29;20322;-92
2021/12/07 10:44:59;;;;;;;51.70;31.07;;;1.70;90.10;;;;;;4941018;29;20187;-93
2021/12/07 10:47:24;;;;;;;53.67;31.07;;;1.80;90.30;;;;;;4941639;29;20192;-91
2021/12/07 10:50:09;;;;;;;48.80;29.60;;;1.80;90.30;;;;;;4938950;29;20213;-90
2021/12/07 10:52:39;;;;;;;53.53;33.30;;;1.80;90.10;;;;;;4938469;29;20243;-91
2021/12/07 10:55:16;;;;;;;55.23;30.47;;;1.80;90.20;;;;;;4938701;29;20271;-92
2021/12/07 10:57:52;;;;;;;46.63;29.53;;;1.80;90.30;;;;;;4938489;29;20268;-91
2021/12/07 11:00:31;;;;;;;48.57;29.57;;;1.90;90.30;;;;;;4938666;29;20522;-92
2021/12/07 11:03:01;;;;;;;48.67;30.30;;;2.00;90.20;;;;;;4939398;29;20616;-91
2021/12/07 11:05:40;;;;;;;49.77;32.03;;;2.00;90.20;;;;;;4938744;28;20188;-91
2021/12/07 11:08:09;;;;;;;52.27;29.73;;;2.00;89.90;;;;;;4939504;29;20203;-92
2021/12/07 11:10:43;;;;;;;55.53;32.00;;;2.00;90.20;;;;;;4938401;29;20212;-91
2021/12/07 11:13:34;;;;;;;48.60;30.07;;;2.00;90.30;;;;;;4938275;29;20176;-91
2021/12/07 11:16:05;;;;;;;47.33;30.63;;;2.10;90.50;;;;;;4937891;29;20179;-91
2021/12/07 11:18:44;;;;;;;51.57;31.53;;;2.10;90.40;;;;;;4938002;29;20211;-92
2021/12/07 11:21:16;;;;;;;55.63;31.27;;;2.20;90.50;;;;;;4937761;29;20177;-89
2021/12/07 11:23:49;;;;;;;51.17;30.40;;;2.30;90.50;;;;;;4937247;29;20679;-90
2021/12/07 11:31:35;;;;;;;53.20;30.47;;;2.30;90.20;;;;;;4938908;29;20167;-90
2021/12/07 11:34:15;;;;;;;50.10;30.20;;;2.30;90.20;;;;;;4937020;29;20215;-91
2021/12/07 11:36:43;;;;;;;45.10;27.23;;;2.30;90.20;;;;;;4938568;29;20218;-90
2021/12/07 11:39:19;;;;;;;50.07;29.20;;;2.30;90.20;;;;;;4937134;29;20582;-90
2021/12/07 11:41:47;;;;;;;48.90;30.33;;;2.30;90.30;;;;;;4936925;29;20572;-91
2021/12/07 11:44:13;;;;;;;50.17;30.17;;;2.30;90.10;;;;;;4936969;29;20186;-92
2021/12/07 11:46:47;;;;;;;47.03;30.43;;;2.30;90.00;;;;;;4936782;29;20191;-90
2021/12/07 11:49:20;;;;;;;50.20;29.90;;;2.30;90.10;;;;;;4936714;29;20263;-90
2021/12/07 11:51:47;;;;;;;47.93;29.17;;;2.30;90.00;;;;;;4938269;29;20177;-91
2021/12/07 11:54:14;;;;;;;44.73;28.07;;;2.30;90.00;;;;;;4937279;29;20657;-90
2021/12/07 11:56:42;;;;;;;43.70;27.30;;;2.30;90.00;;;;;;4936736;29;20182;-91
2021/12/07 11:59:08;;;;;;;46.60;27.83;;;2.30;90.00;;;;;;4937596;29;20211;-92
2021/12/07 12:01:34;;;;;;;51.57;30.87;;;2.30;90.00;;;;;;4936632;29;20208;-91
2021/12/07 12:04:01;;;;;;;52.43;30.33;;;2.30;90.10;;;;;;4936779;29;20204;-91
2021/12/07 12:06:27;;;;;;;53.47;30.30;;;2.40;90.20;;;;;;4938055;29;20191;-92
2021/12/07 12:08:54;;;;;;;48.37;30.60;;;2.40;90.10;;;;;;4937166;29;20303;-91
2021/12/07 12:11:41;;;;;;;44.73;29.47;;;2.40;90.00;;;;;;4936502;29;20189;-90
2021/12/07 12:14:37;;;;;;;45.03;29.10;;;2.40;90.10;;;;;;4937762;29;20178;-91
2021/12/07 12:17:12;;;;;;;55.00;31.70;;;2.40;90.10;;;;;;4936067;29;20186;-91
2021/12/07 12:19:46;;;;;;;57.77;29.07;;;2.30;89.80;;;;;;4936053;29;20191;-91
2021/12/07 12:22:35;;;;;;;67.70;35.47;;;2.20;90.00;;;;;;4936156;29;20211;-91
2021/12/07 12:25:06;;;;;;;56.13;33.33;;;2.20;90.10;;;;;;4935998;29;20176;-91
2021/12/07 12:27:35;;;;;;;53.57;31.37;;;2.20;90.00;;;;;;4935764;29;20726;-91
2021/12/07 12:30:19;;;;;;;56.93;31.63;;;2.20;90.10;;;;;;4935795;29;20217;-91
2021/12/07 12:32:48;;;;;;;53.03;31.07;;;2.20;90.20;;;;;;4935831;29;20274;-90
2021/12/07 12:35:14;;;;;;;53.40;31.90;;;2.20;90.30;;;;;;4935780;29;20178;-91
2021/12/07 12:37:46;;;;;;;56.50;31.83;;;2.20;90.40;;;;;;4936203;29;20198;-90
2021/12/07 12:40:32;;;;;;;55.13;32.73;;;2.30;90.50;;;;;;4935908;29;20578;-91
2021/12/07 12:43:01;;;;;;;51.53;29.97;;;2.30;90.50;;;;;;4935828;29;20176;-91
2021/12/07 12:45:31;;;;;;;48.63;29.53;;;2.30;90.40;;;;;;4935597;29;20183;-91
2021/12/07 12:48:18;;;;;;;56.03;35.63;;;2.40;90.50;;;;;;4935376;29;20771;-90
2021/12/07 12:50:55;;;;;;;50.13;29.30;;;2.40;90.70;;;;;;4936737;29;20248;-91
2021/12/07 12:53:34;;;;;;;53.75;37.45;;;2.40;90.50;;;;;;4937140;29;20461;-92
2021/12/07 12:56:03;;;;;;;51.90;31.90;;;2.40;90.60;;;;;;4936007;29;20266;-91
2021/12/07 12:58:29;;;;;;;48.17;30.03;;;2.50;90.70;;;;;;4936496;29;20571;-92
2021/12/07 13:01:24;;;;;;;47.70;29.87;;;2.50;90.80;;;;;;4938039;29;20191;-92
2021/12/07 13:04:06;;;;;;;43.97;25.60;;;2.60;90.80;;;;;;4936981;29;20172;-92
2021/12/07 13:06:32;;;;;;;50.53;29.00;;;2.50;90.70;;;;;;4936285;29;20172;-92
2021/12/07 13:09:05;;;;;;;49.00;27.77;;;2.50;90.60;;;;;;4936836;29;20559;-92
2021/12/07 13:11:37;;;;;;;45.90;27.97;;;2.50;90.60;;;;;;4936431;29;20179;-91
2021/12/07 13:14:11;;;;;;;44.93;28.17;;;2.50;90.60;;;;;;4935855;29;20176;-90
2021/12/07 13:16:39;;;;;;;41.87;26.70;;;2.50;90.60;;;;;;4935006;29;20186;-92
2021/12/07 13:19:07;;;;;;;45.80;27.93;;;2.50;90.80;;;;;;4936113;29;20550;-91
2021/12/07 13:21:44;;;;;;;50.70;29.27;;;2.50;90.90;;;;;;4936293;29;20186;-92
2021/12/07 13:24:18;;;;;;;41.33;23.47;;;2.40;90.50;;;;;;4937003;29;20175;-91
2021/12/07 13:26:50;;;;;;;42.83;25.63;;;2.40;90.70;;;;;;4935622;29;20221;-91
2021/12/07 13:29:18;;;;;;;47.23;27.40;;;2.40;90.70;;;;;;4935585;29;20591;-92
2021/12/07 13:31:46;;;;;;;40.70;25.90;;;2.40;90.80;;;;;;4936102;29;20172;-91
2021/12/07 13:34:15;;;;;;;47.73;28.67;;;2.40;90.70;;;;;;4935863;29;20235;-91
2021/12/07 13:36:50;;;;;;;47.33;27.13;;;2.30;90.90;;;;;;4936228;29;20273;-92
2021/12/07 13:39:17;;;;;;;44.13;27.93;;;2.30;91.00;;;;;;4936194;29;20201;-91
2021/12/07 13:42:11;;;;;;;48.00;27.90;;;2.30;91.10;;;;;;4935903;29;20235;-92
2021/12/07 13:44:54;;;;;;;45.43;27.20;;;2.30;91.20;;;;;;4928618;29;20229;-92
2021/12/07 13:47:29;;;;;;;51.13;31.77;;;2.30;91.30;;;;;;4934745;29;20488;-92
2021/12/07 13:50:13;;;;;;;49.27;29.37;;;2.30;91.30;;;;;;4936982;29;20210;-92
2021/12/07 13:52:46;;;;;;;47.87;27.43;;;2.30;91.20;;;;;;4937745;29;20181;-92
2021/12/07 13:55:16;;;;;;;48.13;28.63;;;2.40;91.30;;;;;;4937189;29;20261;-93
2021/12/07 13:57:47;;;;;;;41.73;27.10;;;2.40;91.40;;;;;;4937390;29;20192;-92
2021/12/07 14:00:25;;;;;;;45.40;27.17;;;2.40;91.30;;;;;;4938079;29;20191;-92
2021/12/07 14:03:02;;;;;;;45.80;27.07;;;2.40;91.30;;;;;;4936773;29;20175;-92
2021/12/07 14:05:31;;;;;;;45.70;27.00;;;2.40;91.40;;;;;;4937173;29;20539;-92
2021/12/07 14:08:00;;;;;;;49.67;28.27;;;2.40;91.20;;;;;;4936971;29;20200;-93
2021/12/07 14:10:29;;;;;;;47.83;28.03;;;2.40;91.30;;;;;;4937821;29;20676;-93
2021/12/07 14:12:57;;;;;;;47.43;29.33;;;2.40;91.30;;;;;;4935281;29;20581;-91
2021/12/07 14:15:29;;;;;;;50.83;27.80;;;2.40;91.20;;;;;;4935262;29;20314;-92
2021/12/07 14:18:10;;;;;;;42.20;27.47;;;2.40;91.10;;;;;;4934948;29;20198;-92
2021/12/07 14:20:59;;;;;;;46.33;27.87;;;2.50;91.10;;;;;;4936192;29;20180;-93